createdAt,value
2019-03-13T00:00:26.012Z,8.30
2019-03-13T00:02:58.314Z,8.27
2019-03-13T00:05:30.487Z,8.27
2019-03-13T00:08:02.382Z,8.27
2019-03-13T00:10:34.332Z,8.26
2019-03-13T00:13:06.892Z,8.26
2019-03-13T00:15:39.193Z,8.25
2019-03-13T00:18:11.132Z,8.26
2019-03-13T00:20:43.112Z,8.24
2019-03-13T00:23:15.361Z,8.23
2019-03-13T00:25:48.132Z,8.22
2019-03-13T00:28:20.072Z,8.21
2019-03-13T00:30:52.010Z,8.22
2019-03-13T00:33:24.220Z,8.19
2019-03-13T00:35:56.210Z,8.18
2019-03-13T00:38:28.144Z,8.18
2019-03-13T00:41:00.164Z,8.16
2019-03-13T00:43:32.383Z,8.17
2019-03-13T00:46:04.346Z,8.15
2019-03-13T00:48:36.283Z,8.13
2019-03-13T00:51:08.236Z,8.13
2019-03-13T00:53:40.174Z,8.12
2019-03-13T00:56:12.106Z,8.12
2019-03-13T00:58:44.043Z,8.12
2019-03-13T01:01:17.626Z,8.12
2019-03-13T01:03:51.194Z,8.11
2019-03-13T01:06:24.794Z,8.11
2019-03-13T01:08:56.736Z,8.10
2019-03-13T01:11:28.709Z,8.08
2019-03-13T01:14:00.821Z,8.08
2019-03-13T01:16:32.772Z,8.09
2019-03-13T01:19:04.710Z,8.08
2019-03-13T01:21:36.661Z,8.08
2019-03-13T01:24:08.613Z,8.08
2019-03-13T01:26:40.620Z,8.09
2019-03-13T01:29:12.554Z,8.07
2019-03-13T01:31:49.049Z,8.08
2019-03-13T01:34:37.573Z,8.09
2019-03-13T01:37:09.519Z,8.09
2019-03-13T01:39:41.451Z,8.07
2019-03-13T01:42:13.970Z,8.07
2019-03-13T01:44:45.979Z,8.08
2019-03-13T01:47:17.918Z,8.09
2019-03-13T01:49:50.049Z,8.09
2019-03-13T01:52:22.147Z,8.11
2019-03-13T01:54:55.018Z,8.11
2019-03-13T01:57:27.723Z,8.12
2019-03-13T02:00:00.365Z,8.14
2019-03-13T02:02:32.578Z,8.14
2019-03-13T02:05:05.554Z,8.16
2019-03-13T02:07:37.746Z,8.17
2019-03-13T02:10:12.696Z,8.20
2019-03-13T02:12:45.007Z,8.18
2019-03-13T04:29:13.975Z,7.03
2019-03-13T04:31:46.273Z,7.02
2019-03-13T04:34:18.234Z,7.01
2019-03-13T04:36:50.293Z,7.00
2019-03-13T04:39:22.205Z,7.00
2019-03-13T04:41:54.141Z,7.01
2019-03-13T04:44:26.450Z,7.03
2019-03-13T04:46:58.405Z,7.01
2019-03-13T04:49:30.678Z,6.97
2019-03-13T04:52:02.613Z,6.96
2019-03-13T04:54:34.573Z,6.96
2019-03-13T04:57:06.508Z,6.94
2019-03-13T04:59:38.472Z,6.93
2019-03-13T05:02:10.409Z,6.92
2019-03-13T05:04:42.374Z,6.93
2019-03-13T05:07:14.329Z,6.92
2019-03-13T05:09:46.280Z,6.92
2019-03-13T05:12:18.219Z,6.91
2019-03-13T05:14:50.191Z,6.90
2019-03-13T05:17:22.133Z,6.89
2019-03-13T05:19:54.123Z,6.88
2019-03-13T05:22:26.055Z,6.87
2019-03-13T05:24:58.105Z,6.86
2019-03-13T05:27:30.107Z,6.87
2019-03-13T05:30:02.059Z,6.86
2019-03-13T05:32:34.277Z,6.86
2019-03-13T05:35:07.541Z,6.87
2019-03-13T05:37:39.499Z,6.87
2019-03-13T05:40:12.859Z,6.89
2019-03-13T05:42:44.795Z,6.86
2019-03-13T05:45:16.820Z,6.87
2019-03-13T05:47:48.777Z,6.89
2019-03-13T05:50:20.728Z,6.86
2019-03-13T05:52:52.675Z,6.86
2019-03-13T05:55:24.753Z,6.88
2019-03-13T05:57:56.703Z,6.90
2019-03-13T06:00:29.521Z,6.94
2019-03-13T06:03:01.465Z,7.00
2019-03-13T06:05:33.561Z,7.05
2019-03-13T06:08:05.585Z,7.09
2019-03-13T06:10:37.526Z,7.14
2019-03-13T06:13:09.486Z,7.17
2019-03-13T06:15:41.438Z,7.21
2019-03-13T06:18:13.480Z,7.22
2019-03-13T06:20:45.452Z,7.25
2019-03-13T06:23:17.398Z,7.25
2019-03-13T06:25:49.352Z,7.28
2019-03-13T06:28:21.291Z,7.30
2019-03-13T06:30:53.253Z,7.31
2019-03-13T06:33:25.187Z,7.33
2019-03-13T06:35:57.174Z,7.36
2019-03-13T06:38:29.425Z,7.39
2019-03-13T06:41:05.002Z,7.43
2019-03-13T06:43:35.706Z,7.48
2019-03-13T06:46:07.651Z,7.51
2019-03-13T06:48:39.600Z,7.57
2019-03-13T06:51:11.543Z,7.61
2019-03-13T06:53:43.543Z,7.65
2019-03-13T06:56:15.490Z,7.65
2019-03-13T06:58:49.075Z,7.68
2019-03-13T07:01:28.625Z,7.69
2019-03-13T07:04:21.252Z,7.71
2019-03-13T07:07:10.010Z,7.72
2019-03-13T07:09:58.543Z,7.76
2019-03-13T07:12:32.140Z,7.81
2019-03-13T07:15:15.656Z,7.85
2019-03-13T07:18:05.319Z,7.85
2019-03-13T07:20:51.331Z,7.88
2019-03-13T07:23:41.427Z,7.92
2019-03-13T07:26:15.338Z,7.94
2019-03-13T07:28:52.525Z,7.97
2019-03-13T07:31:26.337Z,8.00
2019-03-13T07:33:59.916Z,8.06
2019-03-13T07:36:42.627Z,8.10
2019-03-13T07:39:22.320Z,8.13
2019-03-13T07:41:58.836Z,8.16
2019-03-13T07:44:41.469Z,8.22
2019-03-13T07:47:15.118Z,8.27
2019-03-13T07:49:48.741Z,8.32
2019-03-13T07:52:40.599Z,8.34
2019-03-13T07:55:16.892Z,8.39
2019-03-13T07:57:50.535Z,8.42
2019-03-13T08:00:25.141Z,8.46
2019-03-13T08:02:58.816Z,8.48
2019-03-13T08:05:38.359Z,8.51
2019-03-13T08:08:12.009Z,8.53
2019-03-13T08:11:01.772Z,8.58
2019-03-13T08:13:51.770Z,8.60
2019-03-13T08:16:28.243Z,8.62
2019-03-13T08:19:17.103Z,8.66
2019-03-13T08:22:07.038Z,8.72
2019-03-13T08:24:55.617Z,8.76
2019-03-13T08:27:44.089Z,8.80
2019-03-13T08:30:20.193Z,8.87
2019-03-13T08:33:05.385Z,8.93
2019-03-13T08:35:42.078Z,8.95
2019-03-13T08:38:24.756Z,8.95
2019-03-13T08:41:04.273Z,8.98
2019-03-13T08:43:53.931Z,9.01
2019-03-13T08:46:33.418Z,9.04
2019-03-13T08:49:10.004Z,9.06
2019-03-13T08:51:49.090Z,9.14
2019-03-13T08:54:28.418Z,9.21
2019-03-13T08:57:02.007Z,9.25
2019-03-13T08:59:36.192Z,9.28
2019-03-13T09:02:10.103Z,9.35
2019-03-13T09:04:47.044Z,9.41
2019-03-13T09:07:32.751Z,9.45
2019-03-13T09:10:25.971Z,9.50
2019-03-13T09:13:05.475Z,9.58
2019-03-13T09:15:50.802Z,9.65
2019-03-13T09:18:33.770Z,9.70
2019-03-13T09:21:13.103Z,9.75
2019-03-13T09:23:55.576Z,9.76
2019-03-13T09:26:29.175Z,9.77
2019-03-13T09:29:18.843Z,9.80
2019-03-13T09:31:55.330Z,9.82
2019-03-13T09:34:37.837Z,9.84
2019-03-13T09:37:23.670Z,9.85
2019-03-13T09:39:57.248Z,9.81
2019-03-13T09:42:36.766Z,9.82
2019-03-13T09:45:12.796Z,9.84
2019-03-13T09:47:46.392Z,9.84
2019-03-13T09:50:22.671Z,9.87
2019-03-13T09:53:05.221Z,9.92
2019-03-13T09:55:39.055Z,9.98
2019-03-13T09:58:28.586Z,10.03
2019-03-13T10:01:08.198Z,10.08
2019-03-13T10:03:44.441Z,10.13
2019-03-13T10:06:18.082Z,10.18
2019-03-13T10:09:00.658Z,10.24
2019-03-13T10:11:34.279Z,10.30
2019-03-13T10:14:07.895Z,10.35
2019-03-13T10:16:44.237Z,10.41
2019-03-13T10:19:33.011Z,10.45
2019-03-13T10:22:09.485Z,10.53
2019-03-13T10:24:43.103Z,10.60
2019-03-13T10:27:34.525Z,10.66
2019-03-13T10:30:14.774Z,10.72
2019-03-13T10:33:04.388Z,10.77
2019-03-13T10:35:37.981Z,10.80
2019-03-13T10:38:17.474Z,10.83
2019-03-13T10:40:59.987Z,10.87
2019-03-13T10:43:39.686Z,10.83
2019-03-13T10:46:19.375Z,10.77
2019-03-13T10:48:55.774Z,10.69
2019-03-13T10:51:41.305Z,10.63
2019-03-13T10:54:17.871Z,10.55
2019-03-13T10:56:54.404Z,10.48
2019-03-13T10:59:28.084Z,10.40
2019-03-13T11:02:17.901Z,10.34
2019-03-13T11:04:57.376Z,10.29
2019-03-13T11:07:33.937Z,10.22
2019-03-13T11:10:17.351Z,10.20
2019-03-13T11:12:53.458Z,10.15
2019-03-13T11:15:32.780Z,10.14
2019-03-13T11:18:22.450Z,10.13
2019-03-13T11:20:59.010Z,10.08
2019-03-13T11:23:32.656Z,10.08
2019-03-13T11:26:17.801Z,10.10
2019-03-13T11:29:09.664Z,10.11
2019-03-13T11:31:43.259Z,10.12
2019-03-13T11:34:22.795Z,10.15
2019-03-13T11:37:05.265Z,10.15
2019-03-13T11:39:38.890Z,10.12
2019-03-13T11:42:12.538Z,10.11
2019-03-13T11:44:49.144Z,10.09
2019-03-13T11:47:41.868Z,10.12
2019-03-13T11:50:22.576Z,10.15
2019-03-13T11:53:02.022Z,10.17
2019-03-13T11:55:35.621Z,10.18
2019-03-13T11:58:15.286Z,10.22
2019-03-13T12:01:05.177Z,10.25
2019-03-13T12:03:54.947Z,10.28
2019-03-13T12:06:28.560Z,10.33
2019-03-13T12:09:08.028Z,10.38
2019-03-13T12:11:44.326Z,10.42
2019-03-13T12:14:29.677Z,10.43
2019-03-13T12:17:09.102Z,10.43
2019-03-13T12:19:42.779Z,10.44
2019-03-13T12:22:19.141Z,10.47
2019-03-13T12:25:09.134Z,10.48
2019-03-13T12:27:48.995Z,10.46
2019-03-13T12:30:39.733Z,10.45
2019-03-13T12:33:29.413Z,10.44
2019-03-13T12:36:09.094Z,10.38
2019-03-13T12:38:45.659Z,10.35
2019-03-13T12:41:36.028Z,10.35
2019-03-13T12:44:18.801Z,10.40
2019-03-13T12:47:01.440Z,10.48
2019-03-13T12:49:38.795Z,10.52
2019-03-13T12:52:21.358Z,10.55
2019-03-13T12:55:10.166Z,10.55
2019-03-13T12:57:43.762Z,10.57
2019-03-13T13:00:37.737Z,10.59
2019-03-13T13:03:14.220Z,10.60
2019-03-13T13:05:57.252Z,10.64
2019-03-13T13:08:33.548Z,10.65
2019-03-13T13:11:07.367Z,10.62
2019-03-13T13:13:56.217Z,10.60
2019-03-13T13:16:41.748Z,10.59
2019-03-13T13:19:13.725Z,10.59
2019-03-13T13:21:45.806Z,10.58
2019-03-13T13:24:18.162Z,10.56
2019-03-13T13:26:50.503Z,10.54
2019-03-13T13:29:22.539Z,10.50
2019-03-13T13:31:55.428Z,10.46
2019-03-13T13:34:27.719Z,10.42
2019-03-13T13:36:59.725Z,10.36
2019-03-13T13:39:31.704Z,10.37
2019-03-13T13:42:03.645Z,10.36
2019-03-13T13:44:35.689Z,10.38
2019-03-13T13:47:08.087Z,10.43
2019-03-13T13:49:40.035Z,10.44
2019-03-13T13:52:12.292Z,10.44
2019-03-13T13:54:44.302Z,10.42
2019-03-13T13:57:16.521Z,10.41
2019-03-13T13:59:48.478Z,10.38
2019-03-13T14:02:20.449Z,10.35
2019-03-13T14:04:52.407Z,10.35
2019-03-13T14:07:24.352Z,10.35
2019-03-13T14:09:56.333Z,10.34
2019-03-13T14:12:28.316Z,10.34
2019-03-13T14:15:00.672Z,10.35
2019-03-13T14:17:32.664Z,10.36
2019-03-13T14:20:06.564Z,10.37
2019-03-13T14:22:38.785Z,10.38
2019-03-13T14:25:13.948Z,10.37
2019-03-13T14:27:45.935Z,10.41
2019-03-13T14:30:22.780Z,10.43
2019-03-13T14:32:54.810Z,10.44
2019-03-13T14:35:30.918Z,10.43
2019-03-13T14:38:03.462Z,10.41
2019-03-13T14:40:35.642Z,10.38
2019-03-13T14:43:07.671Z,10.36
2019-03-13T14:45:39.609Z,10.36
2019-03-13T14:48:11.575Z,10.37
2019-03-13T14:50:43.853Z,10.37
2019-03-13T14:53:15.795Z,10.36
2019-03-13T14:55:48.048Z,10.32
2019-03-13T14:58:20.055Z,10.28
2019-03-13T15:00:52.252Z,10.24
2019-03-13T15:03:27.630Z,9.94
2019-03-13T15:05:59.629Z,10.21
2019-03-13T15:08:31.607Z,10.21
2019-03-13T15:11:03.808Z,10.21
2019-03-13T15:13:35.743Z,9.95
2019-03-13T15:16:07.795Z,10.15
2019-03-13T15:18:39.736Z,10.21
2019-03-13T15:21:11.946Z,10.18
2019-03-13T15:23:43.913Z,10.16
2019-03-13T15:26:15.864Z,10.13
2019-03-13T15:28:48.123Z,10.08
2019-03-13T15:31:20.087Z,10.01
2019-03-13T15:33:52.320Z,10.06
2019-03-13T15:36:24.281Z,10.04
2019-03-13T15:38:56.263Z,10.02
2019-03-13T15:41:28.448Z,9.99
2019-03-13T15:44:00.739Z,9.95
2019-03-13T15:46:33.017Z,9.92
2019-03-13T15:49:05.483Z,9.89
2019-03-13T15:51:38.752Z,9.87
2019-03-13T15:54:11.035Z,9.84
2019-03-13T15:56:43.321Z,9.80
2019-03-13T15:59:15.569Z,9.77
2019-03-13T16:01:47.506Z,9.77
2019-03-13T16:04:19.930Z,9.75
2019-03-13T16:06:51.875Z,9.71
2019-03-13T16:09:23.814Z,9.65
2019-03-13T16:11:55.759Z,9.63
2019-03-13T16:14:28.808Z,9.60
2019-03-13T16:17:01.022Z,9.60
2019-03-13T16:19:32.963Z,9.57
2019-03-13T16:22:06.187Z,9.57
2019-03-13T16:24:38.210Z,9.55
2019-03-13T16:27:10.248Z,9.54
2019-03-13T16:29:42.525Z,9.52
2019-03-13T16:32:16.731Z,9.48
2019-03-13T16:34:48.681Z,9.49
2019-03-13T16:37:20.965Z,9.48
2019-03-13T16:39:53.339Z,9.46
2019-03-13T16:42:25.281Z,9.44
2019-03-13T16:44:57.294Z,9.41
2019-03-13T16:47:29.232Z,9.37
2019-03-13T16:50:01.387Z,9.36
2019-03-13T16:52:33.390Z,9.34
2019-03-13T16:55:09.276Z,9.34
2019-03-13T16:57:41.238Z,9.30
2019-03-13T17:00:31.706Z,9.29
2019-03-13T17:03:03.779Z,9.28
2019-03-13T17:05:35.728Z,9.27
2019-03-13T17:08:07.698Z,9.26
2019-03-13T17:10:39.940Z,9.27
2019-03-13T17:13:11.900Z,9.26
2019-03-13T17:15:43.839Z,9.27
2019-03-13T17:18:16.138Z,9.26
2019-03-13T17:20:48.443Z,9.26
2019-03-13T17:23:20.412Z,9.27
2019-03-13T17:25:52.423Z,9.25
2019-03-13T17:28:24.948Z,9.26
2019-03-13T17:30:56.888Z,9.28
2019-03-13T17:33:28.831Z,9.27
2019-03-13T17:36:00.763Z,9.27
2019-03-13T17:38:34.343Z,9.26
2019-03-13T17:41:06.380Z,9.23
2019-03-13T17:43:39.850Z,9.20
2019-03-13T17:46:12.051Z,9.15
2019-03-13T17:48:44.018Z,9.13
2019-03-13T17:51:16.329Z,9.12
2019-03-13T17:53:48.853Z,9.10
2019-03-13T17:56:21.126Z,9.06
2019-03-13T17:58:53.409Z,9.04
2019-03-13T18:01:25.360Z,9.05
2019-03-13T18:03:57.291Z,9.06
2019-03-13T18:06:31.229Z,9.07
2019-03-13T18:09:04.836Z,9.06
2019-03-13T18:11:37.422Z,9.08
2019-03-13T18:14:09.696Z,9.09
2019-03-13T18:16:42.122Z,9.10
2019-03-13T18:19:14.133Z,9.10
2019-03-13T18:21:46.108Z,9.12
2019-03-13T18:24:18.049Z,9.14
2019-03-13T18:26:50.347Z,9.16
2019-03-13T18:29:22.692Z,9.14
2019-03-13T18:31:55.092Z,9.14
2019-03-13T18:34:27.010Z,9.15
2019-03-13T18:36:59.068Z,9.14
2019-03-13T18:39:31.408Z,9.15
2019-03-13T18:42:03.638Z,9.12
2019-03-13T18:44:37.917Z,9.12
2019-03-13T18:47:09.926Z,9.11
2019-03-13T18:49:41.877Z,9.11
2019-03-13T18:52:13.819Z,9.11
2019-03-13T18:54:45.787Z,9.11
2019-03-13T18:57:17.994Z,9.11
2019-03-13T18:59:49.938Z,9.12
2019-03-13T19:02:22.122Z,9.13
2019-03-13T19:04:54.147Z,9.13
2019-03-13T19:07:26.351Z,9.11
2019-03-13T19:09:58.358Z,9.11
2019-03-13T19:12:30.586Z,9.08
2019-03-13T19:15:02.558Z,9.07
2019-03-13T19:17:34.502Z,9.08
2019-03-13T19:20:12.128Z,9.06
2019-03-13T19:22:44.687Z,9.07
2019-03-13T19:25:17.439Z,9.06
2019-03-13T19:27:49.512Z,9.03
2019-03-13T19:30:37.383Z,9.02
2019-03-13T19:33:07.966Z,8.97
2019-03-13T19:35:39.999Z,8.95
2019-03-13T19:38:15.302Z,8.92
2019-03-13T19:40:47.410Z,8.91
2019-03-13T19:43:19.350Z,8.93
2019-03-13T19:45:51.619Z,8.93
2019-03-13T19:48:23.553Z,8.93
2019-03-13T19:50:56.679Z,8.93
2019-03-13T19:53:28.738Z,8.94
2019-03-13T19:56:00.690Z,8.93
2019-03-13T19:58:32.636Z,8.94
2019-03-13T20:01:05.823Z,8.91
2019-03-13T20:03:54.664Z,8.94
2019-03-13T20:06:17.968Z,8.94
2019-03-13T20:08:50.237Z,8.93
2019-03-13T20:11:22.167Z,8.93
2019-03-13T20:13:54.126Z,8.90
2019-03-13T20:16:26.061Z,8.93
2019-03-13T20:18:58.003Z,8.91
2019-03-13T20:21:31.336Z,8.89
2019-03-13T20:24:03.425Z,8.89
2019-03-13T20:26:35.358Z,8.85
2019-03-13T20:29:07.600Z,8.81
2019-03-13T20:31:39.540Z,8.78
2019-03-13T20:34:11.478Z,8.77
2019-03-13T20:36:43.421Z,8.76
2019-03-13T20:39:15.362Z,8.75
2019-03-13T20:41:47.324Z,8.75
2019-03-13T20:44:19.663Z,8.75
2019-03-13T20:46:51.598Z,8.73
2019-03-13T20:49:23.531Z,8.71
2019-03-13T20:51:55.545Z,8.69
2019-03-13T20:54:27.854Z,8.67
2019-03-13T20:56:59.790Z,8.67
2019-03-13T20:59:32.763Z,8.67
2019-03-13T21:02:05.032Z,8.69
2019-03-13T21:04:38.108Z,8.69
2019-03-13T21:07:10.165Z,8.67
2019-03-13T21:09:42.107Z,8.68
2019-03-13T21:12:14.071Z,8.67
2019-03-13T21:14:46.010Z,8.64
2019-03-13T21:17:18.040Z,8.64
2019-03-13T21:19:50.246Z,8.63
2019-03-13T21:22:22.275Z,8.63
2019-03-13T21:24:54.508Z,8.62
2019-03-13T21:27:26.459Z,8.60
2019-03-13T21:29:58.824Z,8.56
2019-03-13T21:32:30.847Z,8.58
2019-03-13T21:35:03.777Z,8.57
2019-03-13T21:37:35.794Z,8.55
2019-03-13T21:40:24.970Z,8.52
2019-03-13T21:42:57.008Z,8.51
2019-03-13T21:45:40.659Z,8.51
2019-03-13T21:48:02.911Z,8.50
2019-03-13T21:50:35.165Z,8.51
2019-03-13T21:53:07.636Z,8.51
2019-03-13T21:55:39.561Z,8.53
2019-03-13T21:58:11.823Z,8.52
2019-03-13T22:00:43.940Z,8.54
2019-03-13T22:03:28.026Z,8.57
2019-03-13T22:05:50.069Z,8.59
2019-03-13T22:08:23.365Z,8.60
2019-03-13T22:10:55.384Z,8.61
2019-03-13T22:13:27.873Z,8.61
2019-03-13T22:16:00.279Z,8.61
2019-03-13T22:18:33.366Z,8.61
2019-03-13T22:21:05.320Z,8.61
2019-03-13T22:23:37.258Z,8.62
2019-03-13T22:26:09.273Z,8.62
2019-03-13T22:28:41.207Z,8.62
2019-03-13T22:31:13.516Z,8.63
2019-03-13T22:33:45.826Z,8.63
2019-03-13T22:36:17.770Z,8.65
2019-03-13T22:38:49.713Z,8.67
2019-03-13T22:41:22.313Z,8.67
2019-03-13T22:43:54.545Z,8.68
2019-03-13T22:46:26.489Z,8.68
2019-03-13T22:48:59.307Z,8.69
2019-03-13T22:51:31.241Z,8.70
2019-03-13T22:54:03.184Z,8.70
2019-03-13T22:56:35.188Z,8.69
2019-03-13T22:59:07.139Z,8.69
2019-03-13T23:01:42.993Z,8.69
2019-03-13T23:04:14.997Z,8.68
2019-03-13T23:06:46.936Z,8.68
2019-03-13T23:09:18.882Z,8.69
2019-03-13T23:11:50.823Z,8.68
2019-03-13T23:14:22.771Z,8.69
2019-03-13T23:16:54.716Z,8.69
2019-03-13T23:19:26.668Z,8.70
2019-03-13T23:21:58.606Z,8.71
2019-03-13T23:24:30.572Z,8.70
2019-03-13T23:27:02.944Z,8.71
2019-03-13T23:29:34.898Z,8.67
2019-03-13T23:32:07.015Z,8.65
2019-03-13T23:34:38.957Z,8.63
2019-03-13T23:37:10.891Z,8.63
2019-03-13T23:39:42.849Z,8.63
2019-03-13T23:42:14.955Z,8.64
2019-03-13T23:44:46.989Z,8.65
2019-03-13T23:47:19.108Z,8.64
2019-03-13T23:49:51.219Z,8.62
2019-03-13T23:52:25.718Z,8.60
2019-03-13T23:54:56.907Z,8.58
2019-03-13T23:57:28.930Z,8.56
